Time;durP1;ratioP1;P1;durP2;ratioP2;P2;SDS_P1;SDS_P2;PMS_P1;PMS_P2;Temp;Humidity;BMP_temperature;BMP_pressure;BME280_temperature;BME280_humidity;BME280_pressure;Samples;Min_cycle;Max_cycle;Signal;HPM_P1;HPM_P2
2022/04/11 00:00:09;;;;;;;320.43;106.13;;;;;;;7.32;80.68;98982.22;345036;28;1370;-68
2022/04/11 00:00:20;;;;;;;318.73;105.13;;;;;;;7.33;80.52;98983.91;344952;28;1315;-68
2022/04/11 00:00:30;;;;;;;318.65;103.75;;;;;;;7.36;80.95;98983.81;347203;28;1208;-68
2022/04/11 00:00:41;;;;;;;321.30;106.05;;;;;;;7.36;80.82;98981.19;346433;28;1003;-68
2022/04/11 00:00:51;;;;;;;322.57;107.70;;;;;;;7.34;80.58;98980.41;340963;29;1915;-68
2022/04/11 00:01:02;;;;;;;322.30;108.18;;;;;;;7.32;80.70;98983.06;340624;28;1710;-68
2022/04/11 00:01:12;;;;;;;321.67;107.50;;;;;;;7.32;80.84;98982.22;345078;28;1215;-68
2022/04/11 00:01:22;;;;;;;321.55;108.10;;;;;;;7.31;80.89;98985.72;345530;28;1884;-68
2022/04/11 00:01:33;;;;;;;321.50;107.53;;;;;;;7.34;81.24;98988.22;343317;28;2130;-68
2022/04/11 00:01:44;;;;;;;320.63;107.05;;;;;;;7.38;81.01;98989.78;343706;28;1205;-68
2022/04/11 00:01:54;;;;;;;320.13;105.82;;;;;;;7.39;81.26;98988.00;342187;28;1228;-68
2022/04/11 00:02:05;;;;;;;321.07;107.20;;;;;;;7.36;80.89;98973.41;344973;28;1106;-68
2022/04/11 00:02:15;;;;;;;320.83;107.80;;;;;;;7.37;80.71;98989.81;347813;28;859;-68
2022/04/11 00:02:26;;;;;;;319.27;107.30;;;;;;;7.37;80.75;98990.69;347619;28;907;-68
2022/04/11 00:02:36;;;;;;;317.77;105.95;;;;;;;7.39;80.53;98983.66;344866;28;936;-68
2022/04/11 00:02:46;;;;;;;317.67;106.63;;;;;;;7.39;80.75;98986.25;342294;28;1335;-68
2022/04/11 00:02:57;;;;;;;318.08;107.47;;;;;;;7.41;81.00;98986.19;339524;29;1869;-68
2022/04/11 00:03:07;;;;;;;319.07;109.27;;;;;;;7.42;80.81;98991.34;343609;28;2096;-68
2022/04/11 00:03:18;;;;;;;319.45;108.68;;;;;;;7.40;80.87;98990.56;343165;28;2251;-68
2022/04/11 00:03:29;;;;;;;318.53;106.43;;;;;;;7.41;80.31;98989.66;344059;28;1772;-68
2022/04/11 00:03:39;;;;;;;318.25;104.85;;;;;;;7.43;80.26;98989.59;341048;29;865;-68
2022/04/11 00:03:50;;;;;;;319.27;106.23;;;;;;;7.44;80.42;98992.16;343931;28;1759;-68
2022/04/11 00:04:00;;;;;;;319.80;106.93;;;;;;;7.44;80.39;98984.34;342279;28;1038;-68
2022/04/11 00:04:11;;;;;;;318.13;106.37;;;;;;;7.43;80.71;98985.25;344984;28;1326;-68
2022/04/11 00:04:21;;;;;;;317.00;106.33;;;;;;;7.42;80.69;98996.56;343682;28;1191;-68
2022/04/11 00:04:32;;;;;;;318.00;107.23;;;;;;;7.45;80.72;98993.00;342162;28;1264;-69
2022/04/11 00:04:42;;;;;;;318.40;106.27;;;;;;;7.42;80.30;98986.16;343629;28;1381;-69
2022/04/11 00:04:53;;;;;;;317.80;104.80;;;;;;;7.44;80.24;98989.53;345654;28;1539;-69
2022/04/11 00:05:04;;;;;;;315.58;103.07;;;;;;;7.45;80.14;98993.84;348517;28;2162;-69
2022/04/11 00:05:14;;;;;;;314.33;102.20;;;;;;;7.45;80.34;98993.84;347744;28;1229;-69
2022/04/11 00:05:24;;;;;;;312.03;101.47;;;;;;;7.43;80.31;98995.66;347652;28;1286;-69
2022/04/11 00:05:35;;;;;;;312.10;101.83;;;;;;;7.42;80.60;98988.75;344946;28;1445;-69
2022/04/11 00:05:45;;;;;;;313.60;101.32;;;;;;;7.42;80.58;98986.16;343609;28;1472;-69
2022/04/11 00:05:56;;;;;;;316.40;101.90;;;;;;;7.41;80.34;98997.47;343602;28;1672;-69
2022/04/11 00:06:06;;;;;;;316.08;101.55;;;;;;;7.41;80.44;98984.44;343626;28;860;-69
2022/04/11 00:06:16;;;;;;;316.70;103.63;;;;;;;7.43;80.44;98997.41;342420;28;934;-69
2022/04/11 00:06:27;;;;;;;319.67;106.78;;;;;;;7.41;80.32;98992.25;343630;28;845;-69
2022/04/11 00:06:37;;;;;;;321.00;108.63;;;;;;;7.39;80.21;98988.88;343629;28;2470;-69
2022/04/11 00:06:47;;;;;;;320.83;107.72;;;;;;;7.40;80.10;98987.09;342263;28;884;-69
2022/04/11 00:06:58;;;;;;;319.47;106.40;;;;;;;7.38;80.05;98994.97;342078;28;1640;-69
2022/04/11 00:07:08;;;;;;;320.27;106.17;;;;;;;7.38;79.80;98992.38;342180;28;2069;-69
2022/04/11 00:07:18;;;;;;;320.05;106.30;;;;;;;7.38;79.90;98991.53;339619;29;1013;-69
2022/04/11 00:07:29;;;;;;;318.87;106.07;;;;;;;7.39;80.22;98994.06;343739;28;983;-69
2022/04/11 00:07:39;;;;;;;317.42;105.70;;;;;;;7.40;79.91;98992.31;345009;28;912;-69
2022/04/11 00:07:50;;;;;;;318.70;107.20;;;;;;;7.41;80.10;98994.84;342238;28;1700;-69
2022/04/11 00:08:00;;;;;;;318.33;105.22;;;;;;;7.43;80.21;99000.84;343105;28;2116;-69
2022/04/11 00:08:11;;;;;;;318.90;105.50;;;;;;;7.47;79.83;98997.22;344972;28;1580;-69
2022/04/11 00:08:21;;;;;;;317.15;102.82;;;;;;;7.50;80.22;98998.88;343758;28;1006;-69
2022/04/11 00:08:32;;;;;;;316.80;103.53;;;;;;;7.50;80.07;99002.31;342287;28;1074;-69
2022/04/11 00:08:42;;;;;;;316.10;103.15;;;;;;;7.50;80.28;98997.13;343080;28;1901;-69
2022/04/11 00:08:52;;;;;;;315.70;105.03;;;;;;;7.48;80.30;99004.13;344847;28;1345;-69
2022/04/11 00:09:03;;;;;;;316.83;106.38;;;;;;;7.50;79.88;98999.72;343597;28;1862;-69
2022/04/11 00:09:13;;;;;;;316.80;106.60;;;;;;;7.50;79.67;98999.72;342324;28;1670;-69
2022/04/11 00:09:24;;;;;;;317.35;105.43;;;;;;;7.49;80.21;98998.03;343602;28;1467;-69
2022/04/11 00:09:34;;;;;;;317.73;104.90;;;;;;;7.52;79.86;99000.50;343683;28;920;-69
2022/04/11 00:09:45;;;;;;;316.42;103.78;;;;;;;7.51;79.92;99004.03;343453;28;1888;-69
2022/04/11 00:09:55;;;;;;;316.67;104.67;;;;;;;7.50;80.07;99002.31;344899;28;880;-69
2022/04/11 00:10:06;;;;;;;318.73;105.85;;;;;;;7.48;79.72;99004.13;344862;28;878;-69
2022/04/11 00:10:16;;;;;;;319.10;106.10;;;;;;;7.49;80.39;99003.22;343594;28;852;-69
2022/04/11 00:10:26;;;;;;;318.95;106.35;;;;;;;7.50;80.21;99001.47;344894;28;872;-69
2022/04/11 00:10:37;;;;;;;317.80;105.20;;;;;;;7.50;80.18;98996.28;345123;28;833;-69
2022/04/11 00:10:48;;;;;;;318.55;105.40;;;;;;;7.50;79.74;99002.31;341916;28;1402;-69
2022/04/11 00:10:58;;;;;;;318.87;105.90;;;;;;;7.51;79.52;98997.97;341913;28;2021;-69
2022/04/11 00:11:08;;;;;;;318.10;105.63;;;;;;;7.52;79.21;99002.25;340958;29;2013;-69
2022/04/11 00:11:19;;;;;;;316.23;105.07;;;;;;;7.47;79.75;99002.44;344947;28;1208;-69
2022/04/11 00:11:29;;;;;;;317.48;106.13;;;;;;;7.45;79.86;99001.66;346158;28;1815;-69
2022/04/11 00:11:39;;;;;;;316.40;104.10;;;;;;;7.42;79.87;99009.56;346408;28;947;-69
2022/04/11 00:11:51;;;;;;;315.50;102.00;;;;;;;7.45;80.06;99001.66;347723;28;912;-69
2022/04/11 00:12:01;;;;;;;313.10;100.05;;;;;;;7.46;79.82;99005.94;346338;28;993;-69
2022/04/11 00:12:12;;;;;;;314.45;104.00;;;;;;;7.45;79.72;99006.00;346355;28;787;-69
2022/04/11 00:12:22;;;;;;;316.43;106.27;;;;;;;7.47;79.64;99007.66;343615;28;881;-69
2022/04/11 00:12:35;;;;;;;316.60;104.50;;;;;;;7.50;79.86;99006.69;343629;28;841;-69
2022/04/11 00:12:46;;;;;;;316.63;104.60;;;;;;;7.52;79.83;99005.72;344762;28;2376;-69
2022/04/11 00:13:06;;;;;;;317.67;106.10;;;;;;;7.51;79.74;99001.41;344516;28;2078;-69
2022/04/11 00:13:16;;;;;;;317.42;106.13;;;;;;;7.53;79.36;99006.56;343675;28;873;-69
2022/04/11 00:13:27;;;;;;;316.80;106.43;;;;;;;7.53;79.37;98999.59;343601;28;1325;-69
2022/04/11 00:13:37;;;;;;;317.57;105.90;;;;;;;7.48;79.96;98998.94;343590;28;1167;-69
2022/04/11 00:13:47;;;;;;;317.90;103.60;;;;;;;7.45;79.95;98999.03;343696;28;942;-69
2022/04/11 00:13:58;;;;;;;319.13;104.80;;;;;;;7.42;79.68;99006.13;346101;28;1321;-69
2022/04/11 00:14:08;;;;;;;320.40;105.95;;;;;;;7.41;79.89;99001.81;346363;28;1074;-69
2022/04/11 00:14:19;;;;;;;321.00;107.40;;;;;;;7.41;79.69;99013.09;347674;28;1279;-69
2022/04/11 00:14:29;;;;;;;320.50;106.00;;;;;;;7.41;79.94;99004.41;344949;28;900;-69
2022/04/11 00:14:40;;;;;;;320.67;105.97;;;;;;;7.41;80.13;99009.63;343722;28;1012;-69
2022/04/11 00:14:50;;;;;;;319.17;105.32;;;;;;;7.41;80.65;99013.09;343255;28;1887;-69
2022/04/11 00:15:01;;;;;;;318.07;104.43;;;;;;;7.41;80.36;99013.09;343253;28;1937;-69
2022/04/11 00:15:11;;;;;;;316.90;103.95;;;;;;;7.42;80.66;99009.56;349112;28;1477;-69
2022/04/11 00:15:21;;;;;;;316.83;104.23;;;;;;;7.43;80.67;99008.66;349189;28;897;-69
2022/04/11 00:15:38;;;;;;;317.20;105.15;;;;;;;7.45;80.79;99004.25;346289;28;1315;-69
2022/04/11 00:15:48;;;;;;;317.13;105.65;;;;;;;7.41;80.30;99013.09;346044;28;2143;-69
2022/04/11 00:15:59;;;;;;;317.92;105.07;;;;;;;7.39;80.29;99014.03;342443;28;1972;-69
2022/04/11 00:16:09;;;;;;;318.00;105.03;;;;;;;7.39;80.16;99009.69;345438;28;2021;-69
2022/04/11 00:16:20;;;;;;;318.42;104.85;;;;;;;7.40;79.81;99015.75;345018;28;888;-69
2022/04/11 00:16:31;;;;;;;318.27;105.63;;;;;;;7.39;80.21;99014.91;340589;29;1786;-69
2022/04/11 00:16:41;;;;;;;318.05;105.05;;;;;;;7.36;79.79;99009.84;342330;28;1046;-69
2022/04/11 00:16:51;;;;;;;317.80;104.50;;;;;;;7.37;79.68;99006.28;342307;28;919;-69
2022/04/11 00:17:02;;;;;;;318.83;103.10;;;;;;;7.36;80.02;99009.84;344430;28;2057;-69
2022/04/11 00:17:13;;;;;;;319.13;103.72;;;;;;;7.39;80.07;99014.03;345051;28;880;-69
2022/04/11 00:17:23;;;;;;;318.27;102.40;;;;;;;7.40;79.99;99015.75;346415;28;797;-69
2022/04/11 00:17:34;;;;;;;318.70;103.53;;;;;;;7.39;80.21;99014.03;343610;28;1824;-69
2022/04/11 00:17:45;;;;;;;319.02;103.70;;;;;;;7.41;80.05;99017.44;343131;28;1930;-69
2022/04/11 00:17:55;;;;;;;318.52;103.07;;;;;;;7.44;80.10;99015.56;343901;28;1644;-69
2022/04/11 00:18:06;;;;;;;318.00;103.13;;;;;;;7.47;80.17;99007.66;343436;28;1892;-69
2022/04/11 00:18:16;;;;;;;317.25;103.15;;;;;;;7.49;80.18;99013.66;345346;28;1779;-69
2022/04/11 00:18:27;;;;;;;316.48;104.32;;;;;;;7.49;80.02;99024.06;346868;28;1900;-69
2022/04/11 00:18:37;;;;;;;314.53;101.27;;;;;;;7.50;79.94;99012.75;344989;28;1087;-69
2022/04/11 00:18:47;;;;;;;313.20;99.85;;;;;;;7.47;80.05;99009.41;345048;28;777;-69
2022/04/11 00:18:58;;;;;;;313.53;100.53;;;;;;;7.44;80.13;99005.16;343436;28;2004;-69
2022/04/11 00:19:12;;;;;;;314.57;101.37;;;;;;;7.42;79.69;99014.78;345038;28;883;-69
2022/04/11 00:19:22;;;;;;;314.08;99.57;;;;;;;7.41;79.62;99018.28;346214;28;908;-69
2022/04/11 00:19:32;;;;;;;315.90;102.07;;;;;;;7.40;79.65;99011.38;346278;28;1348;-69
2022/04/11 00:19:43;;;;;;;317.70;104.07;;;;;;;7.39;79.43;99020.09;343739;28;1482;-69
2022/04/11 00:19:53;;;;;;;318.30;105.63;;;;;;;7.39;79.90;99016.66;343581;28;844;-69
2022/04/11 00:20:04;;;;;;;318.07;105.03;;;;;;;7.39;80.10;99008.84;343913;28;1287;-69
2022/04/11 00:20:14;;;;;;;318.63;104.63;;;;;;;7.33;79.93;99012.56;346384;28;1451;-69
2022/04/11 00:20:25;;;;;;;320.03;105.27;;;;;;;7.34;80.07;99017.69;346174;28;1407;-69
2022/04/11 00:20:36;;;;;;;321.00;104.43;;;;;;;7.36;80.05;99015.03;346411;28;896;-69
2022/04/11 00:20:47;;;;;;;320.50;104.03;;;;;;;7.38;79.68;99015.81;341058;29;861;-69
2022/04/11 00:20:57;;;;;;;318.58;104.72;;;;;;;7.41;79.61;99020.03;341890;28;1970;-69
2022/04/11 00:21:08;;;;;;;318.40;106.03;;;;;;;7.41;80.16;99020.91;342238;28;1923;-69
2022/04/11 00:21:18;;;;;;;319.07;106.37;;;;;;;7.40;80.02;99016.59;346454;28;832;-69
2022/04/11 00:21:29;;;;;;;318.38;103.93;;;;;;;7.41;80.10;99020.03;345187;28;1196;-69
2022/04/11 00:21:39;;;;;;;317.17;102.53;;;;;;;7.41;80.16;99013.09;346408;28;1055;-69
2022/04/11 00:21:49;;;;;;;316.77;102.50;;;;;;;7.37;79.46;99019.31;346389;28;911;-69
2022/04/11 00:22:00;;;;;;;317.37;103.37;;;;;;;7.34;80.02;99017.69;343457;28;1394;-69
2022/04/11 00:22:10;;;;;;;317.93;103.27;;;;;;;7.31;79.70;99022.16;342424;28;944;-69
2022/04/11 00:22:20;;;;;;;317.40;102.57;;;;;;;7.34;80.04;99016.84;345037;28;1305;-69
2022/04/11 00:22:35;;;;;;;317.47;102.43;;;;;;;7.37;79.88;99019.31;344379;28;2499;-69
2022/04/11 00:22:45;;;;;;;317.80;103.72;;;;;;;7.41;79.98;99020.03;347282;28;997;-66
2022/04/11 00:22:55;;;;;;;318.15;105.40;;;;;;;7.45;79.54;99011.22;344946;28;947;-67
2022/04/11 00:23:06;;;;;;;319.33;107.17;;;;;;;7.44;80.01;99018.19;343280;28;1891;-67
2022/04/11 00:23:16;;;;;;;318.83;106.78;;;;;;;7.44;79.50;99015.56;341047;29;789;-68
2022/04/11 00:23:27;;;;;;;319.83;107.17;;;;;;;7.44;79.67;99020.78;340997;29;809;-68
2022/04/11 00:23:37;;;;;;;320.63;106.85;;;;;;;7.40;79.42;99011.38;342208;28;1601;-68
2022/04/11 00:23:48;;;;;;;320.90;108.23;;;;;;;7.40;79.33;99019.19;341030;29;949;-68
2022/04/11 00:23:58;;;;;;;320.65;107.28;;;;;;;7.39;79.76;99020.09;340861;29;994;-68
2022/04/11 00:24:09;;;;;;;320.60;106.40;;;;;;;7.38;79.90;99015.81;342319;28;1590;-68
2022/04/11 00:24:19;;;;;;;321.42;106.30;;;;;;;7.38;79.64;99018.41;340988;29;977;-68
2022/04/11 00:24:30;;;;;;;321.25;106.18;;;;;;;7.39;79.76;99020.09;342110;28;1561;-68
2022/04/11 00:24:40;;;;;;;321.17;106.67;;;;;;;7.39;79.42;99020.09;342241;28;1852;-68
2022/04/11 00:24:51;;;;;;;319.93;106.83;;;;;;;7.39;79.85;99014.91;342305;28;944;-68
2022/04/11 00:25:05;;;;;;;319.83;107.40;;;;;;;7.38;79.62;99022.75;342242;28;1961;-68
2022/04/11 00:25:15;;;;;;;317.60;104.65;;;;;;;7.40;79.80;99016.59;342303;28;1282;-68
2022/04/11 00:25:26;;;;;;;316.90;103.73;;;;;;;7.40;80.06;99016.59;342342;28;905;-68
2022/04/11 00:25:37;;;;;;;317.35;102.65;;;;;;;7.41;79.89;99018.28;344981;28;1140;-68
2022/04/11 00:25:48;;;;;;;318.08;105.50;;;;;;;7.43;79.74;99018.22;347767;28;899;-68
2022/04/11 00:25:58;;;;;;;318.17;106.50;;;;;;;7.44;79.51;99020.78;346389;28;840;-69
2022/04/11 00:26:08;;;;;;;317.33;106.40;;;;;;;7.43;79.79;99019.06;346375;28;832;-69
2022/04/11 00:26:19;;;;;;;317.00;103.87;;;;;;;7.41;79.41;99020.91;346053;28;1935;-69
2022/04/11 00:26:29;;;;;;;317.25;103.07;;;;;;;7.40;79.56;99023.56;343556;28;852;-69
2022/04/11 00:26:39;;;;;;;318.77;104.00;;;;;;;7.40;79.65;99020.94;342396;28;865;-69
2022/04/11 00:26:50;;;;;;;319.80;105.60;;;;;;;7.40;79.08;99027.00;345034;28;805;-69
2022/04/11 00:27:00;;;;;;;321.53;107.70;;;;;;;7.39;79.53;99020.09;344087;28;2001;-69
2022/04/11 00:27:11;;;;;;;322.77;108.82;;;;;;;7.37;79.20;99023.66;343336;28;2017;-69
2022/04/11 00:27:21;;;;;;;323.57;108.73;;;;;;;7.35;79.07;99018.53;345095;28;2485;-69
2022/04/11 00:27:31;;;;;;;322.63;107.03;;;;;;;7.38;79.14;99025.38;345252;28;1489;-69
2022/04/11 00:27:42;;;;;;;322.20;107.25;;;;;;;7.38;79.27;99017.56;345049;28;1095;-69
2022/04/11 00:27:52;;;;;;;320.73;105.70;;;;;;;7.43;79.07;99021.69;342778;28;1740;-69
2022/04/11 00:28:03;;;;;;;320.60;106.80;;;;;;;7.41;79.60;99023.50;345378;28;1479;-69
2022/04/11 00:28:13;;;;;;;319.23;106.10;;;;;;;7.40;79.93;99027.00;342253;28;1461;-69
2022/04/11 00:28:23;;;;;;;318.88;106.78;;;;;;;7.42;79.80;99024.34;343614;28;904;-69
2022/04/11 00:28:34;;;;;;;318.57;106.77;;;;;;;7.43;79.64;99026.03;344903;28;1303;-69
2022/04/11 00:28:44;;;;;;;317.17;105.97;;;;;;;7.45;79.93;99019.88;346226;28;1811;-69
2022/04/11 00:28:54;;;;;;;316.77;105.00;;;;;;;7.44;79.02;99033.78;346421;28;977;-69
2022/04/11 00:29:05;;;;;;;316.93;105.73;;;;;;;7.44;79.07;99022.53;345610;28;1609;-69
2022/04/11 00:29:15;;;;;;;318.17;106.10;;;;;;;7.44;79.47;99023.38;346300;28;1002;-69
2022/04/11 00:29:26;;;;;;;317.93;105.10;;;;;;;7.42;79.51;99027.78;346055;28;939;-69
2022/04/11 00:29:36;;;;;;;317.38;103.88;;;;;;;7.45;79.68;99026.84;343625;28;1224;-69
2022/04/11 00:29:46;;;;;;;317.80;104.13;;;;;;;7.47;79.53;99033.69;343684;28;1822;-69
2022/04/11 00:29:57;;;;;;;318.92;106.53;;;;;;;7.49;79.47;99018.84;343616;28;864;-69
2022/04/11 00:30:08;;;;;;;320.80;108.40;;;;;;;7.42;78.95;99022.59;345101;28;750;-69
2022/04/11 00:30:18;;;;;;;321.73;109.10;;;;;;;7.39;79.04;99025.31;346361;28;883;-69
2022/04/11 00:30:28;;;;;;;321.67;108.47;;;;;;;7.37;78.93;99021.91;344899;28;1388;-69
2022/04/11 00:30:39;;;;;;;319.35;105.18;;;;;;;7.38;79.42;99025.38;346200;28;1239;-69
2022/04/11 00:30:49;;;;;;;317.90;104.27;;;;;;;7.39;79.01;99021.84;343679;28;875;-69
2022/04/11 00:30:59;;;;;;;319.08;105.22;;;;;;;7.39;78.95;99025.31;342647;28;1659;-69
2022/04/11 00:31:10;;;;;;;320.07;107.87;;;;;;;7.41;79.32;99033.91;345994;28;2023;-69
2022/04/11 00:31:20;;;;;;;319.95;108.32;;;;;;;7.44;78.76;99032.94;344975;28;1664;-69
2022/04/11 00:31:31;;;;;;;318.30;106.43;;;;;;;7.45;78.64;99030.28;342075;28;1474;-69
2022/04/11 00:31:41;;;;;;;317.15;104.28;;;;;;;7.47;79.36;99030.22;339763;29;826;-69
2022/04/11 00:31:51;;;;;;;316.97;102.90;;;;;;;7.43;79.63;99026.88;343678;28;1155;-69
2022/04/11 00:32:02;;;;;;;316.70;103.03;;;;;;;7.41;79.29;99018.28;344199;28;2174;-69
2022/04/11 00:32:12;;;;;;;317.13;103.55;;;;;;;7.37;79.32;99026.25;344561;28;1558;-69
2022/04/11 00:32:23;;;;;;;319.03;105.83;;;;;;;7.37;79.43;99016.69;341238;28;1260;-69
2022/04/11 00:32:40;;;;;;;320.42;107.55;;;;;;;7.32;79.27;99023.88;342177;28;1474;-69
2022/04/11 00:32:51;;;;;;;318.88;106.15;;;;;;;7.37;79.46;99023.66;343594;28;2259;-69
2022/04/11 00:33:01;;;;;;;318.73;104.73;;;;;;;7.37;79.17;99021.91;343988;28;1729;-69
2022/04/11 00:33:12;;;;;;;321.52;106.85;;;;;;;7.36;78.98;99030.66;345055;28;1226;-69
2022/04/11 00:33:22;;;;;;;322.70;107.60;;;;;;;7.37;79.05;99021.06;345006;28;877;-69
2022/04/11 00:33:33;;;;;;;321.23;107.13;;;;;;;7.38;78.74;99034.03;343713;28;814;-69
2022/04/11 00:33:43;;;;;;;320.67;106.57;;;;;;;7.37;79.01;99027.13;345018;28;1233;-69
2022/04/11 00:33:53;;;;;;;322.48;108.97;;;;;;;7.36;79.13;99019.41;343658;28;943;-69
2022/04/11 00:34:04;;;;;;;324.73;109.27;;;;;;;7.34;78.55;99024.66;344929;28;1016;-69
2022/04/11 00:34:14;;;;;;;324.50;108.90;;;;;;;7.34;78.69;99022.91;343596;28;1466;-69
2022/04/11 00:34:25;;;;;;;320.58;106.38;;;;;;;7.34;79.13;99027.25;343622;28;907;-69
2022/04/11 00:34:35;;;;;;;318.13;105.37;;;;;;;7.35;78.50;99028.97;339626;29;956;-69
2022/04/11 00:34:45;;;;;;;318.73;106.13;;;;;;;7.38;79.05;99027.97;343567;28;1604;-69
2022/04/11 00:34:56;;;;;;;319.80;106.13;;;;;;;7.41;78.51;99028.69;346026;28;2036;-69
2022/04/11 00:35:08;;;;;;;319.55;106.03;;;;;;;7.43;79.22;99031.25;339518;28;2699;-69
2022/04/11 00:35:19;;;;;;;318.80;105.68;;;;;;;7.42;79.48;99030.41;342085;28;909;-69
2022/04/11 00:35:29;;;;;;;316.80;104.50;;;;;;;7.42;79.13;99029.53;343590;28;1221;-69
2022/04/11 00:35:40;;;;;;;317.43;104.10;;;;;;;7.41;79.82;99033.91;343647;28;876;-69
2022/04/11 00:35:50;;;;;;;318.95;105.03;;;;;;;7.39;80.04;99035.72;343689;28;864;-69
2022/04/11 00:36:00;;;;;;;323.30;108.40;;;;;;;7.43;79.61;99036.44;345007;28;843;-69
2022/04/11 00:36:11;;;;;;;324.00;110.30;;;;;;;7.44;79.45;99033.78;343632;28;861;-69
2022/04/11 00:36:21;;;;;;;323.47;109.43;;;;;;;7.44;79.63;99030.34;344301;28;2066;-69
2022/04/11 00:36:32;;;;;;;321.02;106.75;;;;;;;7.46;79.18;99031.13;344815;28;1262;-69
2022/04/11 00:36:42;;;;;;;319.07;105.57;;;;;;;7.49;79.19;99036.22;343542;28;1243;-69
2022/04/11 00:36:53;;;;;;;318.83;105.80;;;;;;;7.49;79.20;99020.59;345182;28;2474;-69
2022/04/11 00:37:03;;;;;;;319.47;106.97;;;;;;;7.48;78.61;99024.97;345858;28;1491;-69
2022/04/11 00:37:14;;;;;;;318.23;106.10;;;;;;;7.47;78.45;99033.69;340970;29;901;-69
2022/04/11 00:37:24;;;;;;;317.63;105.87;;;;;;;7.44;78.13;99028.59;342338;28;1018;-69
2022/04/11 00:37:34;;;;;;;316.77;103.25;;;;;;;7.41;78.13;99033.91;342408;28;897;-69
2022/04/11 00:37:45;;;;;;;317.43;102.80;;;;;;;7.38;78.35;99031.41;343617;28;1352;-69
2022/04/11 00:37:55;;;;;;;317.55;101.63;;;;;;;7.38;78.56;99033.16;343456;28;1457;-69
2022/04/11 00:38:06;;;;;;;318.90;103.70;;;;;;;7.36;78.64;99033.25;341085;29;891;-69
2022/04/11 00:38:16;;;;;;;318.48;103.35;;;;;;;7.36;78.57;99032.41;342395;28;843;-69
2022/04/11 00:38:26;;;;;;;318.73;104.20;;;;;;;7.34;78.54;99038.53;342205;28;873;-69
2022/04/11 00:38:37;;;;;;;319.15;105.95;;;;;;;7.35;78.53;99034.16;342345;28;1252;-69
2022/04/11 00:38:47;;;;;;;320.50;108.33;;;;;;;7.39;78.48;99034.88;342323;28;881;-69
2022/04/11 00:38:58;;;;;;;322.70;110.17;;;;;;;7.41;78.79;99033.91;343400;28;1698;-69
2022/04/11 00:39:08;;;;;;;325.42;111.28;;;;;;;7.41;78.59;99033.91;346212;28;2086;-69
2022/04/11 00:39:19;;;;;;;323.70;109.73;;;;;;;7.41;78.73;99028.69;346247;28;2366;-69
2022/04/11 00:39:29;;;;;;;322.02;107.55;;;;;;;7.39;78.17;99035.72;344955;28;896;-69
2022/04/11 00:39:39;;;;;;;320.83;107.55;;;;;;;7.41;78.77;99033.91;345673;28;1516;-69
2022/04/11 00:39:50;;;;;;;321.90;108.73;;;;;;;7.43;78.12;99037.31;346344;28;948;-69
2022/04/11 00:40:00;;;;;;;322.67;110.63;;;;;;;7.45;78.57;99038.09;344983;28;1572;-69
2022/04/11 00:40:11;;;;;;;320.60;109.82;;;;;;;7.47;78.43;99038.88;345062;28;983;-69
2022/04/11 00:40:21;;;;;;;319.77;109.10;;;;;;;7.49;78.60;99037.06;344962;28;933;-69
2022/04/11 00:40:31;;;;;;;317.47;106.97;;;;;;;7.50;78.69;99038.78;346911;28;1376;-69
2022/04/11 00:40:42;;;;;;;317.80;106.70;;;;;;;7.48;78.46;99045.78;345105;28;873;-69
2022/04/11 00:40:52;;;;;;;317.40;105.03;;;;;;;7.47;78.64;99033.69;344856;28;1349;-69
2022/04/11 00:41:03;;;;;;;317.97;104.50;;;;;;;7.41;78.49;99033.91;345335;28;2197;-69
2022/04/11 00:41:13;;;;;;;319.13;104.78;;;;;;;7.42;78.35;99039.97;342373;28;885;-69
2022/04/11 00:41:23;;;;;;;320.67;105.37;;;;;;;7.41;78.04;99039.13;344835;28;2027;-69
2022/04/11 00:41:34;;;;;;;321.63;106.32;;;;;;;7.44;78.54;99028.59;343702;28;872;-69
2022/04/11 00:41:44;;;;;;;322.70;107.77;;;;;;;7.45;78.40;99035.50;343099;28;1834;-69
2022/04/11 00:41:55;;;;;;;324.63;110.57;;;;;;;7.45;78.20;99035.50;343966;28;1727;-69
2022/04/11 00:42:09;;;;;;;325.40;111.87;;;;;;;7.40;78.01;99039.16;343611;28;1354;-69
2022/04/11 00:42:20;;;;;;;324.15;108.70;;;;;;;7.41;78.15;99046.91;346970;28;1978;-69
2022/04/11 00:42:32;;;;;;;321.47;105.80;;;;;;;7.38;78.38;99023.59;344886;28;920;-69
2022/04/11 00:42:42;;;;;;;321.85;107.22;;;;;;;7.34;77.64;99030.72;346368;28;876;-69
2022/04/11 00:42:52;;;;;;;321.60;107.95;;;;;;;7.34;77.62;99033.31;343639;28;888;-69
2022/04/11 00:43:03;;;;;;;322.30;108.80;;;;;;;7.35;78.16;99034.16;342019;28;1961;-69
2022/04/11 00:43:30;;;;;;;320.83;107.93;;;;;;;7.38;78.50;99041.81;349019;28;1105;-69
2022/04/11 00:43:41;;;;;;;316.95;107.28;;;;;;;7.40;78.19;99037.41;347718;28;1035;-69
2022/04/11 00:43:51;;;;;;;317.88;108.05;;;;;;;7.40;78.31;99042.63;345255;28;1057;-69
2022/04/11 00:44:01;;;;;;;320.23;109.67;;;;;;;7.41;78.37;99036.50;344880;28;1014;-69
2022/04/11 00:44:12;;;;;;;320.95;110.05;;;;;;;7.43;78.32;99042.50;343653;28;1299;-69
2022/04/11 00:44:22;;;;;;;321.63;110.63;;;;;;;7.44;78.38;99046.81;343700;28;910;-69
2022/04/11 00:44:33;;;;;;;320.60;109.53;;;;;;;7.46;78.15;99037.19;343547;28;840;-69
2022/04/11 00:44:43;;;;;;;321.48;109.35;;;;;;;7.48;78.40;99037.13;342236;28;1711;-69
2022/04/11 00:44:53;;;;;;;321.43;107.97;;;;;;;7.49;78.20;99044.88;343684;28;924;-69
2022/04/11 00:45:04;;;;;;;321.83;108.82;;;;;;;7.49;78.00;99042.28;343509;28;2210;-69
2022/04/11 00:45:15;;;;;;;321.80;108.60;;;;;;;7.50;78.43;99043.13;342342;28;841;-69
2022/04/11 00:45:25;;;;;;;322.03;109.27;;;;;;;7.52;78.54;99044.78;346364;28;947;-69
2022/04/11 00:45:35;;;;;;;320.92;108.45;;;;;;;7.52;78.36;99047.38;347687;28;1420;-69
2022/04/11 00:45:46;;;;;;;320.23;107.53;;;;;;;7.49;78.46;99041.44;347783;28;851;-69
2022/04/11 00:45:56;;;;;;;320.17;107.93;;;;;;;7.47;78.02;99044.09;343166;28;2501;-69
2022/04/11 00:46:08;;;;;;;319.67;107.03;;;;;;;7.47;78.22;99046.69;341018;29;881;-69
2022/04/11 00:46:18;;;;;;;319.95;108.43;;;;;;;7.50;77.95;99043.97;343419;28;1568;-69
2022/04/11 00:46:28;;;;;;;318.98;107.43;;;;;;;7.54;77.92;99050.78;342913;28;1830;-69
2022/04/11 00:46:39;;;;;;;319.50;107.70;;;;;;;7.55;77.98;99047.25;347188;28;1768;-69
2022/04/11 00:46:49;;;;;;;319.65;108.30;;;;;;;7.57;78.04;99045.44;344978;28;978;-69
2022/04/11 00:47:00;;;;;;;319.17;108.13;;;;;;;7.59;78.16;99048.00;344796;28;1598;-69
2022/04/11 00:47:10;;;;;;;318.88;107.75;;;;;;;7.60;78.20;99047.94;346150;28;1818;-69
2022/04/11 00:47:20;;;;;;;320.83;108.70;;;;;;;7.59;78.08;99038.44;343692;28;844;-69
2022/04/11 00:47:31;;;;;;;321.05;107.68;;;;;;;7.59;77.59;99050.59;342831;28;832;-69
2022/04/11 00:47:41;;;;;;;321.10;107.17;;;;;;;7.57;77.90;99050.66;344901;28;1291;-69
2022/04/11 00:47:52;;;;;;;320.63;105.30;;;;;;;7.57;77.39;99048.06;344828;28;1915;-69
2022/04/11 00:48:03;;;;;;;320.43;106.23;;;;;;;7.57;77.67;99045.44;346486;28;899;-69
2022/04/11 00:48:13;;;;;;;320.38;106.38;;;;;;;7.52;77.73;99046.53;343640;28;897;-69
2022/04/11 00:48:24;;;;;;;318.85;106.13;;;;;;;7.48;77.67;99048.41;343575;28;951;-69
2022/04/11 00:48:35;;;;;;;319.20;106.33;;;;;;;7.46;77.47;99049.34;342538;28;1370;-69
2022/04/11 00:48:45;;;;;;;319.30;107.30;;;;;;;7.45;77.90;99047.66;343603;28;846;-69
2022/04/11 00:48:55;;;;;;;319.88;106.68;;;;;;;7.46;78.02;99051.97;343494;28;1892;-69
2022/04/11 00:49:06;;;;;;;320.60;106.50;;;;;;;7.44;78.13;99045.97;342073;28;2011;-69
2022/04/11 00:49:16;;;;;;;321.33;106.25;;;;;;;7.43;77.69;99039.91;344929;28;1287;-69
2022/04/11 00:49:27;;;;;;;322.73;107.87;;;;;;;7.42;77.38;99056.44;344900;28;1631;-69
2022/04/11 00:49:37;;;;;;;321.35;107.13;;;;;;;7.41;77.59;99049.53;344956;28;1820;-69
2022/04/11 00:49:47;;;;;;;320.73;106.13;;;;;;;7.42;77.49;99048.63;347614;28;1345;-73
2022/04/11 00:50:08;;;;;;;319.57;107.13;;;;;;;7.39;77.65;99048.72;347775;28;872;-69